createdAt,value
2018-02-03T09:45:23.432Z,9.97
2018-02-03T09:47:50.755Z,10.43
2018-02-03T09:50:18.048Z,11.23
2018-02-03T09:52:45.308Z,9.70
2018-02-03T09:55:12.584Z,11.27
2018-02-03T09:57:39.846Z,9.67
2018-02-03T10:00:07.139Z,9.90
2018-02-03T10:02:34.407Z,10.57
2018-02-03T10:05:01.664Z,9.93
2018-02-03T10:07:28.948Z,11.00
2018-02-03T10:09:56.236Z,10.47
2018-02-03T10:12:23.529Z,8.50
2018-02-03T10:14:50.767Z,9.53
2018-02-03T10:17:18.049Z,8.60
2018-02-03T10:19:45.336Z,9.20
2018-02-03T10:22:12.584Z,9.83
2018-02-03T10:24:39.832Z,9.33
2018-02-03T10:27:07.131Z,8.10
2018-02-03T10:29:34.375Z,8.37
2018-02-03T10:32:01.632Z,9.60
2018-02-03T10:34:28.907Z,8.70
2018-02-03T10:36:56.159Z,8.00
2018-02-03T10:39:23.464Z,8.83
2018-02-03T10:41:50.787Z,10.67
2018-02-03T10:44:18.016Z,10.30
2018-02-03T10:46:45.308Z,11.30
2018-02-03T10:49:12.606Z,11.50
2018-02-03T10:51:39.887Z,12.70
2018-02-03T10:54:07.235Z,11.03
2018-02-03T10:56:34.533Z,11.00
2018-02-03T10:59:01.788Z,9.50
2018-02-03T11:01:29.060Z,10.00
2018-02-03T11:03:56.341Z,10.10
2018-02-03T11:06:23.640Z,10.30
2018-02-03T11:08:50.900Z,9.63
2018-02-03T11:11:18.153Z,11.53
2018-02-03T11:13:45.458Z,11.07
2018-02-03T11:16:12.740Z,9.40
2018-02-03T11:18:40.019Z,10.57
2018-02-03T11:21:07.319Z,11.27
2018-02-03T11:23:34.596Z,8.80
2018-02-03T11:26:01.848Z,9.67
2018-02-03T11:28:29.127Z,9.83
2018-02-03T11:30:56.383Z,9.67
2018-02-03T11:33:23.664Z,8.70
2018-02-03T11:35:50.935Z,7.53
2018-02-03T11:38:18.207Z,5.40
2018-02-03T11:40:45.540Z,5.17
2018-02-03T11:43:12.801Z,5.40
2018-02-03T11:45:40.077Z,6.13
2018-02-03T11:48:07.351Z,5.43
2018-02-03T11:50:34.915Z,5.30
2018-02-03T11:53:02.211Z,6.00
2018-02-03T11:55:29.472Z,5.30
2018-02-03T11:57:56.751Z,5.90
2018-02-03T12:00:24.016Z,5.20
2018-02-03T12:02:51.331Z,6.37
2018-02-03T12:05:18.697Z,6.27
2018-02-03T12:07:46.003Z,7.80
2018-02-03T12:10:13.264Z,6.10
2018-02-03T12:12:40.521Z,7.20
2018-02-03T12:15:07.803Z,5.47
2018-02-03T12:17:35.073Z,6.20
2018-02-03T12:20:02.332Z,6.33
2018-02-03T12:22:29.609Z,6.03
2018-02-03T12:24:56.883Z,5.57
2018-02-03T12:27:24.136Z,5.97
2018-02-03T12:29:51.615Z,6.07
2018-02-03T12:32:19.085Z,6.30
2018-02-03T12:34:46.389Z,7.30
2018-02-03T12:37:13.657Z,6.53
2018-02-03T12:39:40.969Z,7.17
2018-02-03T12:42:08.236Z,6.23
2018-02-03T12:44:35.484Z,6.30
2018-02-03T12:47:02.756Z,6.00
2018-02-03T12:49:30.009Z,6.17
2018-02-03T12:51:57.288Z,5.77
2018-02-03T12:54:24.545Z,4.87
2018-02-03T12:56:51.797Z,5.20
2018-02-03T12:59:19.184Z,5.27
2018-02-03T13:01:46.439Z,5.10
2018-02-03T13:04:13.696Z,6.20
2018-02-03T13:06:40.968Z,5.53
2018-02-03T13:09:08.217Z,5.67
2018-02-03T13:11:35.491Z,5.10
2018-02-03T13:14:02.785Z,5.10
2018-02-03T13:16:30.074Z,4.83
2018-02-03T13:18:57.374Z,9.57
2018-02-03T13:21:24.662Z,8.10
2018-02-03T13:23:51.939Z,4.23
2018-02-03T13:26:19.245Z,4.20
2018-02-03T13:28:46.528Z,4.00
2018-02-03T13:31:13.796Z,4.57
2018-02-03T13:33:41.047Z,4.10
2018-02-03T13:36:08.332Z,4.17
2018-02-03T13:38:35.576Z,3.50
2018-02-03T13:41:02.838Z,13.47
2018-02-03T13:43:30.137Z,12.77
2018-02-03T13:45:57.417Z,9.27
2018-02-03T13:48:24.668Z,6.10
2018-02-03T13:50:51.942Z,5.27
2018-02-03T13:53:19.196Z,6.33
2018-02-03T13:55:46.488Z,5.83
2018-02-03T13:58:13.760Z,4.30
2018-02-03T14:00:41.004Z,4.63
2018-02-03T14:03:08.276Z,4.57
2018-02-03T14:05:35.557Z,5.03
2018-02-03T14:08:02.843Z,4.67
2018-02-03T14:10:30.092Z,4.90
2018-02-03T14:12:57.403Z,4.40
2018-02-03T14:15:24.688Z,5.20
2018-02-03T14:17:52.014Z,4.60
2018-02-03T14:20:19.255Z,4.90
2018-02-03T14:22:46.525Z,4.63
2018-02-03T14:25:14.690Z,6.27
2018-02-03T14:27:41.970Z,5.00
2018-02-03T14:30:09.217Z,4.73
2018-02-03T14:32:36.487Z,5.00
2018-02-03T14:35:03.755Z,5.43
2018-02-03T14:37:31.004Z,6.07
2018-02-03T14:39:58.284Z,5.67
2018-02-03T14:42:25.547Z,6.53
2018-02-03T14:44:52.795Z,5.80
2018-02-03T14:47:20.062Z,5.60
2018-02-03T14:49:47.308Z,4.90
2018-02-03T14:52:14.555Z,5.77
2018-02-03T14:54:41.823Z,5.20
2018-02-03T14:57:09.079Z,4.57
2018-02-03T14:59:36.344Z,4.90
2018-02-03T15:02:03.587Z,5.90
2018-02-03T15:04:30.856Z,5.00
2018-02-03T15:06:58.110Z,5.40
2018-02-03T15:09:25.379Z,4.90
2018-02-03T15:11:52.623Z,6.40
2018-02-03T15:14:19.905Z,4.73
2018-02-03T15:16:47.148Z,5.20
2018-02-03T15:19:14.417Z,4.87
2018-02-03T15:21:41.664Z,5.60
2018-02-03T15:24:08.932Z,5.07
2018-02-03T15:26:36.179Z,41.70
2018-02-03T15:29:03.465Z,20.23
2018-02-03T15:31:30.726Z,22.63
2018-02-03T15:33:58.001Z,27.17
2018-02-03T15:36:25.264Z,30.40
2018-02-03T15:38:52.605Z,18.70
2018-02-03T15:41:19.870Z,19.20
2018-02-03T15:43:47.128Z,14.53
